createdAt,value
2023-12-07T00:04:17.801Z,63.40
2023-12-07T00:09:23.680Z,65.70
2023-12-07T00:14:29.569Z,61.70
2023-12-07T00:19:35.473Z,53.70
2023-12-07T00:24:41.504Z,68.70
2023-12-07T00:29:47.599Z,72.60
2023-12-07T00:34:53.467Z,61.70
2023-12-07T00:39:59.623Z,64.10
2023-12-07T00:45:06.732Z,64.50
2023-12-07T00:50:15.810Z,68.10
2023-12-07T00:55:21.937Z,62.30
2023-12-07T01:00:27.999Z,66.90
2023-12-07T01:05:34.426Z,69.20
2023-12-07T01:10:40.725Z,70.10
2023-12-07T01:15:46.867Z,71.00
2023-12-07T01:20:52.772Z,69.70
2023-12-07T01:25:59.038Z,69.30
2023-12-07T01:31:05.280Z,67.20
2023-12-07T01:36:12.091Z,68.50
2023-12-07T01:41:18.031Z,71.50
2023-12-07T01:46:24.415Z,66.50
2023-12-07T01:51:31.139Z,60.90
2023-12-07T01:56:37.401Z,61.50
2023-12-07T02:01:44.288Z,66.80
2023-12-07T02:06:50.107Z,68.00
2023-12-07T02:11:55.922Z,54.90
2023-12-07T02:17:09.694Z,51.90
2023-12-07T02:22:23.838Z,60.20
2023-12-07T02:27:38.212Z,61.50
2023-12-07T02:32:46.449Z,57.50
2023-12-07T02:37:53.304Z,58.40
2023-12-07T02:43:00.661Z,60.70
2023-12-07T02:48:08.168Z,56.10
2023-12-07T02:53:14.518Z,61.80
2023-12-07T02:58:20.490Z,52.00
2023-12-07T03:03:26.376Z,56.90
2023-12-07T03:08:32.736Z,57.40
2023-12-07T03:13:38.847Z,57.70
2023-12-07T03:18:44.739Z,57.80
2023-12-07T03:23:51.041Z,51.90
2023-12-07T03:28:56.868Z,58.80
2023-12-07T03:34:03.111Z,64.70
2023-12-07T03:39:09.436Z,61.70
2023-12-07T03:44:15.532Z,51.60
2023-12-07T03:49:21.542Z,57.20
2023-12-07T03:54:27.289Z,60.30
2023-12-07T03:59:33.905Z,61.50
2023-12-07T04:04:40.143Z,53.10
2023-12-07T04:09:46.251Z,54.20
2023-12-07T04:14:52.974Z,57.70
2023-12-07T04:19:58.977Z,59.90
2023-12-07T04:25:06.298Z,52.90
2023-12-07T04:30:14.437Z,51.20
2023-12-07T04:35:20.260Z,46.10
2023-12-07T04:40:27.182Z,56.80
2023-12-07T04:45:33.116Z,67.20
2023-12-07T04:50:39.090Z,64.90
2023-12-07T04:55:49.772Z,56.30
2023-12-07T05:00:56.719Z,54.50
2023-12-07T05:06:02.638Z,54.90
2023-12-07T05:11:09.107Z,118.70
2023-12-07T05:16:15.024Z,98.60
2023-12-07T05:21:21.288Z,69.50
2023-12-07T05:26:27.658Z,53.80
2023-12-07T05:31:34.212Z,51.20
2023-12-07T05:36:40.067Z,45.30
2023-12-07T05:41:47.995Z,48.80
2023-12-07T05:46:53.923Z,50.20
2023-12-07T05:51:59.962Z,50.80
2023-12-07T05:57:06.905Z,44.00
2023-12-07T06:02:12.909Z,53.10
2023-12-07T06:07:18.963Z,46.80
2023-12-07T06:12:26.070Z,50.10
2023-12-07T06:17:34.702Z,46.50
2023-12-07T06:22:40.800Z,49.40
2023-12-07T06:27:47.258Z,57.90
2023-12-07T06:32:53.363Z,55.30
2023-12-07T06:37:59.384Z,47.00
2023-12-07T06:43:05.250Z,47.80
2023-12-07T06:48:11.153Z,57.60
2023-12-07T06:53:19.778Z,67.20
2023-12-07T06:58:26.078Z,71.30
2023-12-07T07:03:32.150Z,68.40
2023-12-07T07:08:38.019Z,52.40
2023-12-07T07:13:44.348Z,53.50
2023-12-07T07:18:50.463Z,49.70
2023-12-07T07:23:57.601Z,56.60
2023-12-07T07:29:04.813Z,54.80
2023-12-07T07:34:11.138Z,53.40
2023-12-07T07:39:17.247Z,46.10
2023-12-07T07:44:23.061Z,49.00
2023-12-07T07:49:29.256Z,47.10
2023-12-07T07:54:35.035Z,48.20
2023-12-07T07:59:40.862Z,43.50
2023-12-07T08:04:47.044Z,46.30
2023-12-07T08:09:52.926Z,50.40
2023-12-07T08:14:58.642Z,46.00
2023-12-07T08:20:04.833Z,43.70
2023-12-07T08:25:12.353Z,47.00
2023-12-07T08:30:19.968Z,49.50
2023-12-07T08:35:25.835Z,51.10
2023-12-07T08:40:31.971Z,47.90
2023-12-07T08:45:39.791Z,43.20
2023-12-07T08:50:45.916Z,52.80
2023-12-07T08:55:52.611Z,45.10
2023-12-07T09:00:58.604Z,47.30
2023-12-07T09:06:06.427Z,45.60
2023-12-07T09:11:12.355Z,46.10
2023-12-07T09:16:18.330Z,46.90
2023-12-07T09:21:24.446Z,49.70
2023-12-07T09:26:30.590Z,49.60
2023-12-07T09:31:36.402Z,46.60
2023-12-07T09:36:42.324Z,51.30
2023-12-07T09:41:48.893Z,54.10
2023-12-07T09:46:55.936Z,57.60
2023-12-07T09:52:02.201Z,51.00
2023-12-07T09:57:10.534Z,44.60
2023-12-07T10:02:17.412Z,53.10
2023-12-07T10:07:39.015Z,59.90
2023-12-07T10:12:52.209Z,61.40
2023-12-07T10:18:01.589Z,71.10
2023-12-07T10:23:09.393Z,75.80
2023-12-07T10:28:19.182Z,42.60
2023-12-07T10:33:25.031Z,44.00
2023-12-07T10:38:33.711Z,52.20
2023-12-07T10:43:43.920Z,46.50
2023-12-07T10:48:52.653Z,44.40
2023-12-07T10:54:04.359Z,42.60
2023-12-07T10:59:23.710Z,46.00
2023-12-07T11:04:38.291Z,46.60
2023-12-07T11:09:49.130Z,55.00
2023-12-07T11:20:00.313Z,43.80
2023-12-07T11:25:09.189Z,45.20
2023-12-07T11:30:17.359Z,41.50
2023-12-07T11:35:23.240Z,47.60
2023-12-07T11:40:30.305Z,46.70
2023-12-07T11:45:50.131Z,43.40
2023-12-07T11:51:01.595Z,48.10
2023-12-07T11:56:11.138Z,45.70
2023-12-07T12:01:19.528Z,39.80
2023-12-07T12:06:27.386Z,44.30
2023-12-07T12:11:33.523Z,46.50
2023-12-07T12:16:39.916Z,53.40
2023-12-07T12:21:45.713Z,57.00
2023-12-07T12:26:52.179Z,48.60
2023-12-07T12:31:57.941Z,55.70
2023-12-07T12:37:07.299Z,55.70
2023-12-07T12:42:13.993Z,56.60
2023-12-07T12:47:20.934Z,55.00
2023-12-07T12:52:29.594Z,53.40
2023-12-07T12:57:37.629Z,61.90
2023-12-07T13:02:43.502Z,61.30
2023-12-07T13:07:55.430Z,53.80
2023-12-07T13:13:08.573Z,49.10
2023-12-07T13:18:14.470Z,45.70
2023-12-07T13:23:21.742Z,45.70
2023-12-07T13:28:27.527Z,48.10
2023-12-07T13:33:38.938Z,54.50
2023-12-07T13:38:49.169Z,43.60
2023-12-07T13:43:55.257Z,46.80
2023-12-07T13:49:01.182Z,55.40
2023-12-07T13:54:23.281Z,56.10
2023-12-07T13:59:38.669Z,55.80
2023-12-07T14:04:45.159Z,47.50
2023-12-07T14:09:57.935Z,46.80
2023-12-07T14:15:08.962Z,53.40
2023-12-07T14:20:28.163Z,53.60
2023-12-07T14:25:47.790Z,46.90
2023-12-07T14:30:57.558Z,51.50
2023-12-07T14:36:05.372Z,51.40
2023-12-07T14:41:13.811Z,54.30
2023-12-07T14:46:22.446Z,64.60
2023-12-07T14:51:30.626Z,59.10
2023-12-07T14:56:36.979Z,55.70
2023-12-07T15:01:43.544Z,58.90
2023-12-07T15:06:49.636Z,60.70
2023-12-07T15:11:55.907Z,55.00
2023-12-07T15:17:02.288Z,59.30
2023-12-07T15:22:09.250Z,65.40
2023-12-07T15:27:15.378Z,66.20
2023-12-07T15:32:21.422Z,62.70
2023-12-07T15:37:27.528Z,62.20
2023-12-07T15:42:33.777Z,55.10
2023-12-07T15:47:39.624Z,64.00
2023-12-07T15:52:46.274Z,71.70
2023-12-07T15:57:52.202Z,72.10
2023-12-07T16:02:58.483Z,67.70
2023-12-07T16:08:04.759Z,57.70
2023-12-07T16:13:12.232Z,62.40
2023-12-07T16:18:18.847Z,59.80
2023-12-07T16:23:25.253Z,66.90
2023-12-07T16:28:31.990Z,68.90
2023-12-07T16:33:38.674Z,66.40
2023-12-07T16:38:45.606Z,68.30
2023-12-07T16:43:51.821Z,73.80
2023-12-07T16:48:57.870Z,60.30
2023-12-07T16:54:04.628Z,68.20
2023-12-07T16:59:10.751Z,61.50
2023-12-07T17:04:17.008Z,53.60
2023-12-07T17:09:23.705Z,59.70
2023-12-07T17:14:32.172Z,61.70
2023-12-07T17:23:12.243Z,67.90
2023-12-07T17:28:18.073Z,55.50
2023-12-07T17:33:27.386Z,68.00
2023-12-07T17:38:33.593Z,76.90
2023-12-07T17:43:40.025Z,94.30
2023-12-07T17:48:49.358Z,86.20
2023-12-07T17:53:55.515Z,84.30
2023-12-07T17:59:01.862Z,79.60
2023-12-07T18:04:08.186Z,80.20
2023-12-07T18:09:17.036Z,93.60
2023-12-07T18:14:23.194Z,73.10
2023-12-07T18:19:29.072Z,70.10
2023-12-07T18:24:35.090Z,61.70
2023-12-07T18:29:41.183Z,66.50
2023-12-07T18:34:47.384Z,73.50
2023-12-07T18:39:55.191Z,83.10
2023-12-07T18:45:02.541Z,78.10
2023-12-07T18:50:10.105Z,58.80
2023-12-07T18:55:16.678Z,79.70
2023-12-07T19:00:24.306Z,72.70
2023-12-07T19:05:30.860Z,77.80
2023-12-07T19:10:36.808Z,73.80
2023-12-07T19:15:43.084Z,59.60
2023-12-07T19:20:49.642Z,58.30
2023-12-07T19:25:55.656Z,68.80
2023-12-07T19:31:01.779Z,74.40
2023-12-07T19:36:08.833Z,69.50
2023-12-07T19:41:15.070Z,57.20
2023-12-07T19:46:22.558Z,57.60
2023-12-07T19:51:32.044Z,70.70
2023-12-07T19:56:38.157Z,69.70
2023-12-07T20:01:44.159Z,71.60
2023-12-07T20:06:50.222Z,67.80
2023-12-07T20:11:56.227Z,64.20
2023-12-07T20:17:02.214Z,65.00
2023-12-07T20:22:11.263Z,61.70
2023-12-07T20:27:20.639Z,53.30
2023-12-07T20:32:31.462Z,50.70
2023-12-07T20:37:39.683Z,54.00
2023-12-07T20:42:45.556Z,62.30
2023-12-07T20:47:51.570Z,58.50
2023-12-07T20:52:57.625Z,58.30
2023-12-07T20:58:03.703Z,61.90
2023-12-07T21:03:09.523Z,65.80
2023-12-07T21:08:15.954Z,60.60
2023-12-07T21:13:21.946Z,58.00
2023-12-07T21:18:29.596Z,57.30
2023-12-07T21:23:37.188Z,51.90
2023-12-07T21:28:43.295Z,53.50
2023-12-07T21:33:49.670Z,57.10
2023-12-07T21:38:55.870Z,62.30
2023-12-07T21:44:01.912Z,56.40
2023-12-07T21:49:08.147Z,55.20
2023-12-07T21:54:14.506Z,56.40
2023-12-07T21:59:20.848Z,61.70
2023-12-07T22:04:27.234Z,51.00
2023-12-07T22:09:33.241Z,58.10
2023-12-07T22:14:40.139Z,64.60
2023-12-07T22:19:45.916Z,48.60
2023-12-07T22:24:51.999Z,51.20
2023-12-07T22:29:58.292Z,56.30
2023-12-07T22:35:04.923Z,49.00
2023-12-07T22:40:12.665Z,56.80
2023-12-07T22:45:19.394Z,53.60
2023-12-07T22:50:25.506Z,60.60
2023-12-07T22:55:31.782Z,54.10
2023-12-07T23:00:37.845Z,53.80
2023-12-07T23:05:44.801Z,46.50
2023-12-07T23:10:51.166Z,56.50
2023-12-07T23:15:57.135Z,56.80
2023-12-07T23:21:03.187Z,52.60
2023-12-07T23:26:11.401Z,46.80
2023-12-07T23:31:17.387Z,56.90
2023-12-07T23:36:23.187Z,56.10
2023-12-07T23:41:29.736Z,48.10
2023-12-07T23:46:35.926Z,54.40
2023-12-07T23:51:41.826Z,52.80
2023-12-07T23:56:47.690Z,57.80
